Eastlake, Colorado
Current Conditions -  °F | °C
As of 1:35 PM on Saturday 25 Oct 2014 (Local Time) from KEIK Reporting Station
Clear Clear  
Wind Chill: 79°   Ceiling: Unl
Heat Index: 79°   Visibility: 10mi
Dew Point: 19°   Wind: 12mph
Humidity: 10%   Direction: 160°SSE
Pressure: 30.13"   Gusts: 17mph
Location:  39.92°N, 104.96°W
Report Text: KEIK 251935Z AUTO 16010G15KT 10SM CLR 26/M07 A3013 RMK AO2 T02611075
Loading
Personal Weather Stations






























Interactive Weather Map New forecast layout! Learn more

10-Day Weather Forecast

Advertisements
Track Severe Weather on mobile